sensor_id;sensor_type;location;lat;lon;timestamp;P1;durP1;ratioP1;P2;durP2;ratioP2
13325;SDS011;6732;51.044;3.746;2022-11-18T00:00:48;2.53;;;1.90;;
13325;SDS011;6732;51.044;3.746;2022-11-18T00:03:14;2.83;;;2.07;;
13325;SDS011;6732;51.044;3.746;2022-11-18T00:05:41;3.10;;;1.90;;
13325;SDS011;6732;51.044;3.746;2022-11-18T00:08:07;2.87;;;1.83;;
13325;SDS011;6732;51.044;3.746;2022-11-18T00:10:35;4.13;;;2.07;;
13325;SDS011;6732;51.044;3.746;2022-11-18T00:13:02;2.87;;;1.93;;
13325;SDS011;6732;51.044;3.746;2022-11-18T00:15:47;2.70;;;1.80;;
13325;SDS011;6732;51.044;3.746;2022-11-18T00:18:13;4.80;;;2.10;;
13325;SDS011;6732;51.044;3.746;2022-11-18T00:20:38;3.37;;;2.00;;
13325;SDS011;6732;51.044;3.746;2022-11-18T00:23:04;3.37;;;2.03;;
13325;SDS011;6732;51.044;3.746;2022-11-18T00:25:32;3.80;;;1.83;;
13325;SDS011;6732;51.044;3.746;2022-11-18T00:27:58;5.27;;;2.17;;
13325;SDS011;6732;51.044;3.746;2022-11-18T00:30:24;2.57;;;1.93;;
13325;SDS011;6732;51.044;3.746;2022-11-18T00:32:49;2.67;;;1.83;;
13325;SDS011;6732;51.044;3.746;2022-11-18T00:35:15;3.57;;;2.03;;
13325;SDS011;6732;51.044;3.746;2022-11-18T00:37:41;3.40;;;2.20;;
13325;SDS011;6732;51.044;3.746;2022-11-18T00:40:07;5.10;;;2.40;;
13325;SDS011;6732;51.044;3.746;2022-11-18T00:42:33;2.97;;;1.80;;
13325;SDS011;6732;51.044;3.746;2022-11-18T00:45:18;3.20;;;2.30;;
13325;SDS011;6732;51.044;3.746;2022-11-18T00:47:45;3.40;;;2.13;;
13325;SDS011;6732;51.044;3.746;2022-11-18T00:50:11;3.53;;;2.07;;
13325;SDS011;6732;51.044;3.746;2022-11-18T00:52:37;6.83;;;2.20;;
13325;SDS011;6732;51.044;3.746;2022-11-18T00:55:03;2.30;;;2.10;;
13325;SDS011;6732;51.044;3.746;2022-11-18T00:57:29;3.53;;;2.10;;
13325;SDS011;6732;51.044;3.746;2022-11-18T00:59:55;4.80;;;2.20;;
13325;SDS011;6732;51.044;3.746;2022-11-18T01:02:21;3.20;;;2.03;;
13325;SDS011;6732;51.044;3.746;2022-11-18T01:04:47;4.20;;;2.30;;
13325;SDS011;6732;51.044;3.746;2022-11-18T01:07:13;3.80;;;2.30;;
13325;SDS011;6732;51.044;3.746;2022-11-18T01:09:39;6.27;;;2.40;;
13325;SDS011;6732;51.044;3.746;2022-11-18T01:12:05;4.27;;;2.70;;
13325;SDS011;6732;51.044;3.746;2022-11-18T01:14:49;6.20;;;2.37;;
13325;SDS011;6732;51.044;3.746;2022-11-18T01:17:16;4.20;;;2.50;;
13325;SDS011;6732;51.044;3.746;2022-11-18T01:19:42;3.87;;;1.97;;
13325;SDS011;6732;51.044;3.746;2022-11-18T01:22:07;4.73;;;2.03;;
13325;SDS011;6732;51.044;3.746;2022-11-18T01:24:33;2.73;;;2.13;;
13325;SDS011;6732;51.044;3.746;2022-11-18T01:27:00;5.67;;;2.40;;
13325;SDS011;6732;51.044;3.746;2022-11-18T01:29:26;5.47;;;2.33;;
13325;SDS011;6732;51.044;3.746;2022-11-18T01:31:52;4.63;;;2.30;;
13325;SDS011;6732;51.044;3.746;2022-11-18T01:34:18;4.53;;;2.50;;
13325;SDS011;6732;51.044;3.746;2022-11-18T01:36:44;5.27;;;2.20;;
13325;SDS011;6732;51.044;3.746;2022-11-18T01:39:10;3.37;;;1.90;;
13325;SDS011;6732;51.044;3.746;2022-11-18T01:41:35;4.13;;;2.27;;
13325;SDS011;6732;51.044;3.746;2022-11-18T01:44:04;4.33;;;2.23;;
13325;SDS011;6732;51.044;3.746;2022-11-18T01:46:50;4.43;;;2.30;;
13325;SDS011;6732;51.044;3.746;2022-11-18T01:49:16;5.90;;;2.10;;
13325;SDS011;6732;51.044;3.746;2022-11-18T01:51:45;3.07;;;2.20;;
13325;SDS011;6732;51.044;3.746;2022-11-18T01:54:18;3.73;;;2.07;;
13325;SDS011;6732;51.044;3.746;2022-11-18T01:56:49;2.50;;;2.00;;
13325;SDS011;6732;51.044;3.746;2022-11-18T01:59:18;2.97;;;2.10;;
13325;SDS011;6732;51.044;3.746;2022-11-18T02:01:47;6.03;;;2.10;;
13325;SDS011;6732;51.044;3.746;2022-11-18T02:04:14;4.73;;;1.87;;
13325;SDS011;6732;51.044;3.746;2022-11-18T02:06:41;4.30;;;2.10;;
13325;SDS011;6732;51.044;3.746;2022-11-18T02:09:08;3.10;;;2.33;;
13325;SDS011;6732;51.044;3.746;2022-11-18T02:11:34;2.97;;;1.80;;
13325;SDS011;6732;51.044;3.746;2022-11-18T02:14:16;3.13;;;2.23;;
13325;SDS011;6732;51.044;3.746;2022-11-18T02:30:07;3.60;;;1.90;;
13325;SDS011;6732;51.044;3.746;2022-11-18T02:40:46;4.13;;;2.20;;
13325;SDS011;6732;51.044;3.746;2022-11-18T02:43:17;4.00;;;2.00;;
13325;SDS011;6732;51.044;3.746;2022-11-18T02:45:50;2.40;;;1.80;;
13325;SDS011;6732;51.044;3.746;2022-11-18T02:48:21;4.30;;;2.00;;
13325;SDS011;6732;51.044;3.746;2022-11-18T02:50:50;3.23;;;1.90;;
13325;SDS011;6732;51.044;3.746;2022-11-18T02:53:18;2.53;;;1.77;;
13325;SDS011;6732;51.044;3.746;2022-11-18T02:55:45;4.17;;;1.80;;
13325;SDS011;6732;51.044;3.746;2022-11-18T02:58:14;2.93;;;1.87;;
13325;SDS011;6732;51.044;3.746;2022-11-18T03:00:43;4.40;;;1.80;;
13325;SDS011;6732;51.044;3.746;2022-11-18T03:11:48;4.33;;;2.03;;
13325;SDS011;6732;51.044;3.746;2022-11-18T03:14:33;5.17;;;2.00;;
13325;SDS011;6732;51.044;3.746;2022-11-18T03:30:54;3.00;;;1.93;;
13325;SDS011;6732;51.044;3.746;2022-11-18T03:33:31;3.93;;;2.13;;
13325;SDS011;6732;51.044;3.746;2022-11-18T03:36:07;4.60;;;2.10;;
13325;SDS011;6732;51.044;3.746;2022-11-18T03:38:37;2.77;;;1.73;;
13325;SDS011;6732;51.044;3.746;2022-11-18T03:41:07;4.37;;;1.87;;
13325;SDS011;6732;51.044;3.746;2022-11-18T03:43:37;5.10;;;2.10;;
13325;SDS011;6732;51.044;3.746;2022-11-18T03:46:19;2.80;;;2.03;;
13325;SDS011;6732;51.044;3.746;2022-11-18T03:48:56;4.13;;;1.77;;
13325;SDS011;6732;51.044;3.746;2022-11-18T03:51:30;3.50;;;1.80;;
13325;SDS011;6732;51.044;3.746;2022-11-18T03:54:09;4.90;;;1.70;;
13325;SDS011;6732;51.044;3.746;2022-11-18T03:56:40;2.97;;;1.70;;
13325;SDS011;6732;51.044;3.746;2022-11-18T03:59:12;3.90;;;1.63;;
13325;SDS011;6732;51.044;3.746;2022-11-18T04:01:51;3.33;;;1.60;;
13325;SDS011;6732;51.044;3.746;2022-11-18T04:04:24;4.70;;;2.00;;
13325;SDS011;6732;51.044;3.746;2022-11-18T04:12:34;1.93;;;1.50;;
13325;SDS011;6732;51.044;3.746;2022-11-18T04:15:18;4.00;;;1.80;;
13325;SDS011;6732;51.044;3.746;2022-11-18T04:17:44;3.70;;;1.87;;
13325;SDS011;6732;51.044;3.746;2022-11-18T04:20:20;3.47;;;1.93;;
13325;SDS011;6732;51.044;3.746;2022-11-18T04:22:47;3.80;;;1.70;;
13325;SDS011;6732;51.044;3.746;2022-11-18T04:25:13;3.30;;;1.80;;
13325;SDS011;6732;51.044;3.746;2022-11-18T04:27:39;5.63;;;2.07;;
13325;SDS011;6732;51.044;3.746;2022-11-18T04:30:06;5.43;;;1.97;;
13325;SDS011;6732;51.044;3.746;2022-11-18T04:32:32;2.67;;;2.00;;
13325;SDS011;6732;51.044;3.746;2022-11-18T04:34:59;5.07;;;2.00;;
13325;SDS011;6732;51.044;3.746;2022-11-18T04:37:25;6.57;;;2.40;;
13325;SDS011;6732;51.044;3.746;2022-11-18T04:39:51;6.60;;;2.23;;
13325;SDS011;6732;51.044;3.746;2022-11-18T04:42:17;5.93;;;2.20;;
13325;SDS011;6732;51.044;3.746;2022-11-18T04:44:43;3.73;;;2.40;;
13325;SDS011;6732;51.044;3.746;2022-11-18T04:47:09;5.47;;;2.53;;
13325;SDS011;6732;51.044;3.746;2022-11-18T04:49:35;4.03;;;2.50;;
13325;SDS011;6732;51.044;3.746;2022-11-18T04:52:02;4.23;;;2.70;;
13325;SDS011;6732;51.044;3.746;2022-11-18T04:54:28;6.20;;;3.27;;
13325;SDS011;6732;51.044;3.746;2022-11-18T04:56:54;5.60;;;2.93;;
13325;SDS011;6732;51.044;3.746;2022-11-18T04:59:22;4.60;;;3.10;;
13325;SDS011;6732;51.044;3.746;2022-11-18T05:01:52;5.87;;;3.17;;
13325;SDS011;6732;51.044;3.746;2022-11-18T05:04:20;6.70;;;3.40;;
13325;SDS011;6732;51.044;3.746;2022-11-18T05:06:51;4.57;;;3.00;;
13325;SDS011;6732;51.044;3.746;2022-11-18T05:09:17;8.47;;;3.00;;
13325;SDS011;6732;51.044;3.746;2022-11-18T05:11:44;4.97;;;2.90;;
13325;SDS011;6732;51.044;3.746;2022-11-18T05:14:29;6.00;;;2.90;;
13325;SDS011;6732;51.044;3.746;2022-11-18T05:16:56;7.20;;;2.80;;
13325;SDS011;6732;51.044;3.746;2022-11-18T05:19:23;4.23;;;2.90;;
13325;SDS011;6732;51.044;3.746;2022-11-18T05:21:49;4.60;;;2.60;;
13325;SDS011;6732;51.044;3.746;2022-11-18T05:24:15;5.77;;;2.97;;
13325;SDS011;6732;51.044;3.746;2022-11-18T05:26:42;5.23;;;2.90;;
13325;SDS011;6732;51.044;3.746;2022-11-18T05:29:08;8.17;;;2.93;;
13325;SDS011;6732;51.044;3.746;2022-11-18T05:31:34;8.23;;;3.00;;
13325;SDS011;6732;51.044;3.746;2022-11-18T05:34:01;5.77;;;2.97;;
13325;SDS011;6732;51.044;3.746;2022-11-18T05:36:27;4.93;;;2.67;;
13325;SDS011;6732;51.044;3.746;2022-11-18T05:38:53;7.20;;;2.57;;
13325;SDS011;6732;51.044;3.746;2022-11-18T05:41:22;6.70;;;2.83;;
13325;SDS011;6732;51.044;3.746;2022-11-18T05:44:06;5.47;;;2.40;;
13325;SDS011;6732;51.044;3.746;2022-11-18T05:46:32;7.47;;;2.50;;
13325;SDS011;6732;51.044;3.746;2022-11-18T05:48:58;7.47;;;3.07;;
13325;SDS011;6732;51.044;3.746;2022-11-18T05:51:24;5.37;;;2.73;;
13325;SDS011;6732;51.044;3.746;2022-11-18T05:53:50;4.83;;;2.70;;
13325;SDS011;6732;51.044;3.746;2022-11-18T05:56:27;4.87;;;2.70;;
13325;SDS011;6732;51.044;3.746;2022-11-18T05:58:55;6.10;;;2.43;;
13325;SDS011;6732;51.044;3.746;2022-11-18T06:01:23;9.33;;;2.90;;
13325;SDS011;6732;51.044;3.746;2022-11-18T06:03:52;6.23;;;2.60;;
13325;SDS011;6732;51.044;3.746;2022-11-18T06:06:19;8.07;;;2.50;;
13325;SDS011;6732;51.044;3.746;2022-11-18T06:08:53;5.53;;;2.60;;
13325;SDS011;6732;51.044;3.746;2022-11-18T06:11:26;5.57;;;2.40;;
13325;SDS011;6732;51.044;3.746;2022-11-18T06:14:12;6.57;;;2.80;;
13325;SDS011;6732;51.044;3.746;2022-11-18T06:16:57;7.07;;;2.57;;
13325;SDS011;6732;51.044;3.746;2022-11-18T06:19:28;5.90;;;2.63;;
13325;SDS011;6732;51.044;3.746;2022-11-18T06:21:56;9.90;;;3.03;;
13325;SDS011;6732;51.044;3.746;2022-11-18T06:24:23;5.27;;;2.80;;
13325;SDS011;6732;51.044;3.746;2022-11-18T06:26:49;5.60;;;3.00;;
13325;SDS011;6732;51.044;3.746;2022-11-18T06:29:16;5.87;;;2.80;;
13325;SDS011;6732;51.044;3.746;2022-11-18T06:31:44;6.07;;;2.43;;
13325;SDS011;6732;51.044;3.746;2022-11-18T06:34:10;6.50;;;2.87;;
13325;SDS011;6732;51.044;3.746;2022-11-18T06:36:36;6.93;;;2.63;;
13325;SDS011;6732;51.044;3.746;2022-11-18T06:39:03;5.13;;;2.30;;
13325;SDS011;6732;51.044;3.746;2022-11-18T06:41:29;4.83;;;3.07;;
13325;SDS011;6732;51.044;3.746;2022-11-18T06:43:56;6.20;;;2.70;;
13325;SDS011;6732;51.044;3.746;2022-11-18T06:46:22;8.43;;;2.30;;
13325;SDS011;6732;51.044;3.746;2022-11-18T06:49:06;6.07;;;2.33;;
13325;SDS011;6732;51.044;3.746;2022-11-18T06:51:32;8.27;;;2.93;;
13325;SDS011;6732;51.044;3.746;2022-11-18T06:53:58;5.70;;;2.90;;
13325;SDS011;6732;51.044;3.746;2022-11-18T06:56:24;7.37;;;2.60;;
13325;SDS011;6732;51.044;3.746;2022-11-18T06:58:54;7.57;;;2.70;;
13325;SDS011;6732;51.044;3.746;2022-11-18T07:01:23;5.97;;;2.50;;
13325;SDS011;6732;51.044;3.746;2022-11-18T07:03:50;5.53;;;2.60;;
13325;SDS011;6732;51.044;3.746;2022-11-18T07:06:18;5.80;;;2.60;;
13325;SDS011;6732;51.044;3.746;2022-11-18T07:08:48;8.87;;;2.60;;
13325;SDS011;6732;51.044;3.746;2022-11-18T07:11:16;8.00;;;3.03;;
13325;SDS011;6732;51.044;3.746;2022-11-18T07:13:44;8.53;;;2.27;;
13325;SDS011;6732;51.044;3.746;2022-11-18T07:16:11;7.20;;;2.63;;
13325;SDS011;6732;51.044;3.746;2022-11-18T07:18:42;6.93;;;2.67;;
13325;SDS011;6732;51.044;3.746;2022-11-18T07:21:10;7.93;;;2.83;;
13325;SDS011;6732;51.044;3.746;2022-11-18T07:23:41;4.90;;;2.17;;
13325;SDS011;6732;51.044;3.746;2022-11-18T07:26:07;5.87;;;2.67;;
13325;SDS011;6732;51.044;3.746;2022-11-18T07:28:34;7.00;;;2.60;;
13325;SDS011;6732;51.044;3.746;2022-11-18T07:33:30;8.47;;;2.70;;
13325;SDS011;6732;51.044;3.746;2022-11-18T07:36:04;6.53;;;2.83;;
13325;SDS011;6732;51.044;3.746;2022-11-18T07:38:31;7.77;;;2.70;;
13325;SDS011;6732;51.044;3.746;2022-11-18T07:41:07;7.43;;;2.53;;
13325;SDS011;6732;51.044;3.746;2022-11-18T07:43:37;6.47;;;2.90;;
13325;SDS011;6732;51.044;3.746;2022-11-18T07:46:10;9.23;;;2.90;;
13325;SDS011;6732;51.044;3.746;2022-11-18T07:48:41;8.17;;;2.83;;
13325;SDS011;6732;51.044;3.746;2022-11-18T07:51:08;12.27;;;3.30;;
13325;SDS011;6732;51.044;3.746;2022-11-18T07:53:35;7.93;;;2.67;;
13325;SDS011;6732;51.044;3.746;2022-11-18T07:56:01;9.77;;;2.83;;
13325;SDS011;6732;51.044;3.746;2022-11-18T07:58:28;8.00;;;2.80;;
13325;SDS011;6732;51.044;3.746;2022-11-18T08:00:54;6.13;;;2.90;;
13325;SDS011;6732;51.044;3.746;2022-11-18T08:03:27;8.97;;;3.17;;
13325;SDS011;6732;51.044;3.746;2022-11-18T08:05:57;7.30;;;3.00;;
13325;SDS011;6732;51.044;3.746;2022-11-18T08:08:24;5.87;;;2.83;;
13325;SDS011;6732;51.044;3.746;2022-11-18T08:10:50;4.63;;;2.60;;
13325;SDS011;6732;51.044;3.746;2022-11-18T08:13:19;4.93;;;2.87;;
13325;SDS011;6732;51.044;3.746;2022-11-18T08:15:45;7.23;;;2.70;;
13325;SDS011;6732;51.044;3.746;2022-11-18T08:18:11;7.07;;;2.80;;
13325;SDS011;6732;51.044;3.746;2022-11-18T08:20:37;8.67;;;2.90;;
13325;SDS011;6732;51.044;3.746;2022-11-18T08:23:02;10.20;;;2.73;;
13325;SDS011;6732;51.044;3.746;2022-11-18T08:25:28;7.13;;;2.67;;
13325;SDS011;6732;51.044;3.746;2022-11-18T08:27:54;9.47;;;3.10;;
13325;SDS011;6732;51.044;3.746;2022-11-18T08:30:20;5.40;;;2.40;;
13325;SDS011;6732;51.044;3.746;2022-11-18T08:32:46;7.77;;;2.87;;
13325;SDS011;6732;51.044;3.746;2022-11-18T08:35:12;7.33;;;3.10;;
13325;SDS011;6732;51.044;3.746;2022-11-18T08:37:38;7.10;;;3.40;;
13325;SDS011;6732;51.044;3.746;2022-11-18T08:40:04;11.50;;;3.30;;
13325;SDS011;6732;51.044;3.746;2022-11-18T08:42:30;6.83;;;3.00;;
13325;SDS011;6732;51.044;3.746;2022-11-18T08:44:56;7.73;;;3.27;;
13325;SDS011;6732;51.044;3.746;2022-11-18T08:47:22;10.17;;;3.13;;
13325;SDS011;6732;51.044;3.746;2022-11-18T08:49:48;8.87;;;3.03;;
13325;SDS011;6732;51.044;3.746;2022-11-18T08:52:14;9.20;;;2.70;;
13325;SDS011;6732;51.044;3.746;2022-11-18T08:54:40;4.23;;;2.60;;
13325;SDS011;6732;51.044;3.746;2022-11-18T08:57:06;7.63;;;2.80;;
13325;SDS011;6732;51.044;3.746;2022-11-18T08:59:32;10.40;;;3.17;;
13325;SDS011;6732;51.044;3.746;2022-11-18T09:01:58;7.57;;;2.87;;
13325;SDS011;6732;51.044;3.746;2022-11-18T09:04:24;7.47;;;2.80;;
13325;SDS011;6732;51.044;3.746;2022-11-18T09:06:50;8.20;;;3.03;;
13325;SDS011;6732;51.044;3.746;2022-11-18T09:09:16;10.17;;;2.87;;
13325;SDS011;6732;51.044;3.746;2022-11-18T09:11:42;6.93;;;2.90;;
13325;SDS011;6732;51.044;3.746;2022-11-18T09:14:09;6.97;;;2.53;;
13325;SDS011;6732;51.044;3.746;2022-11-18T09:16:35;6.37;;;3.03;;
13325;SDS011;6732;51.044;3.746;2022-11-18T09:19:02;6.63;;;2.50;;
13325;SDS011;6732;51.044;3.746;2022-11-18T09:21:28;7.30;;;2.77;;
13325;SDS011;6732;51.044;3.746;2022-11-18T09:23:54;7.67;;;2.70;;
13325;SDS011;6732;51.044;3.746;2022-11-18T09:26:20;5.87;;;2.57;;
13325;SDS011;6732;51.044;3.746;2022-11-18T09:28:53;5.33;;;2.70;;
13325;SDS011;6732;51.044;3.746;2022-11-18T09:31:20;7.70;;;2.90;;
13325;SDS011;6732;51.044;3.746;2022-11-18T09:33:46;4.53;;;2.73;;
13325;SDS011;6732;51.044;3.746;2022-11-18T09:36:18;8.60;;;2.93;;
13325;SDS011;6732;51.044;3.746;2022-11-18T09:38:46;6.60;;;3.20;;
13325;SDS011;6732;51.044;3.746;2022-11-18T09:43:48;8.57;;;3.03;;
13325;SDS011;6732;51.044;3.746;2022-11-18T09:46:44;8.30;;;2.97;;
13325;SDS011;6732;51.044;3.746;2022-11-18T09:49:14;6.70;;;2.90;;
13325;SDS011;6732;51.044;3.746;2022-11-18T09:51:49;5.53;;;2.70;;
13325;SDS011;6732;51.044;3.746;2022-11-18T09:54:20;7.50;;;3.60;;
13325;SDS011;6732;51.044;3.746;2022-11-18T09:56:49;13.33;;;3.40;;
13325;SDS011;6732;51.044;3.746;2022-11-18T09:59:20;8.33;;;3.43;;
13325;SDS011;6732;51.044;3.746;2022-11-18T10:01:49;5.60;;;2.70;;
13325;SDS011;6732;51.044;3.746;2022-11-18T10:04:20;7.80;;;2.90;;
13325;SDS011;6732;51.044;3.746;2022-11-18T10:06:47;8.00;;;2.83;;
13325;SDS011;6732;51.044;3.746;2022-11-18T10:11:57;6.83;;;2.47;;
13325;SDS011;6732;51.044;3.746;2022-11-18T10:15:38;5.37;;;2.83;;
13325;SDS011;6732;51.044;3.746;2022-11-18T10:17:55;8.17;;;2.63;;
13325;SDS011;6732;51.044;3.746;2022-11-18T10:20:31;6.73;;;2.53;;
13325;SDS011;6732;51.044;3.746;2022-11-18T10:25:56;4.93;;;2.53;;
13325;SDS011;6732;51.044;3.746;2022-11-18T10:28:26;7.03;;;3.00;;
13325;SDS011;6732;51.044;3.746;2022-11-18T10:31:02;6.10;;;2.53;;
13325;SDS011;6732;51.044;3.746;2022-11-18T10:33:29;5.23;;;2.60;;
13325;SDS011;6732;51.044;3.746;2022-11-18T10:39:08;9.30;;;3.10;;
13325;SDS011;6732;51.044;3.746;2022-11-18T10:46:54;6.63;;;3.00;;
13325;SDS011;6732;51.044;3.746;2022-11-18T10:49:20;7.07;;;2.70;;
13325;SDS011;6732;51.044;3.746;2022-11-18T10:51:47;6.63;;;2.93;;
13325;SDS011;6732;51.044;3.746;2022-11-18T10:54:30;5.90;;;2.60;;
13325;SDS011;6732;51.044;3.746;2022-11-18T10:59:49;5.17;;;2.80;;
13325;SDS011;6732;51.044;3.746;2022-11-18T11:04:55;6.87;;;2.83;;
13325;SDS011;6732;51.044;3.746;2022-11-18T11:07:24;8.03;;;3.07;;
13325;SDS011;6732;51.044;3.746;2022-11-18T11:09:59;8.40;;;3.10;;
13325;SDS011;6732;51.044;3.746;2022-11-18T11:12:30;5.87;;;3.03;;
13325;SDS011;6732;51.044;3.746;2022-11-18T11:15:02;6.90;;;3.17;;
13325;SDS011;6732;51.044;3.746;2022-11-18T11:17:41;7.37;;;2.77;;
13325;SDS011;6732;51.044;3.746;2022-11-18T11:20:34;7.27;;;3.23;;
13325;SDS011;6732;51.044;3.746;2022-11-18T11:23:01;5.73;;;2.93;;
13325;SDS011;6732;51.044;3.746;2022-11-18T11:25:43;6.33;;;2.80;;
13325;SDS011;6732;51.044;3.746;2022-11-18T11:28:30;5.70;;;3.20;;
13325;SDS011;6732;51.044;3.746;2022-11-18T12:01:30;4.80;;;2.87;;
13325;SDS011;6732;51.044;3.746;2022-11-18T12:04:22;5.40;;;2.87;;
13325;SDS011;6732;51.044;3.746;2022-11-18T12:06:53;4.97;;;2.80;;
13325;SDS011;6732;51.044;3.746;2022-11-18T12:09:24;5.60;;;2.70;;
13325;SDS011;6732;51.044;3.746;2022-11-18T12:14:52;9.20;;;3.03;;
13325;SDS011;6732;51.044;3.746;2022-11-18T12:17:30;7.23;;;2.90;;
13325;SDS011;6732;51.044;3.746;2022-11-18T12:25:58;5.43;;;2.80;;
13325;SDS011;6732;51.044;3.746;2022-11-18T12:33:54;8.77;;;3.17;;
13325;SDS011;6732;51.044;3.746;2022-11-18T12:36:26;7.17;;;3.00;;
13325;SDS011;6732;51.044;3.746;2022-11-18T12:38:55;5.27;;;2.87;;
13325;SDS011;6732;51.044;3.746;2022-11-18T12:44:22;7.40;;;3.40;;
13325;SDS011;6732;51.044;3.746;2022-11-18T12:46:52;7.00;;;2.87;;
13325;SDS011;6732;51.044;3.746;2022-11-18T12:51:49;9.37;;;3.60;;
13325;SDS011;6732;51.044;3.746;2022-11-18T12:57:01;4.97;;;3.00;;
13325;SDS011;6732;51.044;3.746;2022-11-18T12:59:36;6.23;;;3.50;;
13325;SDS011;6732;51.044;3.746;2022-11-18T13:02:25;5.57;;;3.03;;
13325;SDS011;6732;51.044;3.746;2022-11-18T13:07:44;8.13;;;3.20;;
13325;SDS011;6732;51.044;3.746;2022-11-18T13:10:32;7.63;;;3.10;;
13325;SDS011;6732;51.044;3.746;2022-11-18T13:13:02;8.03;;;3.67;;
13325;SDS011;6732;51.044;3.746;2022-11-18T13:15:29;6.73;;;3.13;;
13325;SDS011;6732;51.044;3.746;2022-11-18T13:18:15;9.00;;;3.40;;
13325;SDS011;6732;51.044;3.746;2022-11-18T13:20:57;7.17;;;3.17;;
13325;SDS011;6732;51.044;3.746;2022-11-18T13:23:44;4.63;;;2.90;;
13325;SDS011;6732;51.044;3.746;2022-11-18T13:29:02;8.27;;;2.90;;
13325;SDS011;6732;51.044;3.746;2022-11-18T13:34:06;8.30;;;3.17;;
13325;SDS011;6732;51.044;3.746;2022-11-18T13:36:41;7.00;;;2.80;;
13325;SDS011;6732;51.044;3.746;2022-11-18T13:39:17;7.80;;;2.80;;
13325;SDS011;6732;51.044;3.746;2022-11-18T13:44:27;5.83;;;2.73;;
13325;SDS011;6732;51.044;3.746;2022-11-18T13:46:58;10.47;;;3.00;;
13325;SDS011;6732;51.044;3.746;2022-11-18T13:49:34;5.00;;;2.50;;
13325;SDS011;6732;51.044;3.746;2022-11-18T13:52:16;9.97;;;3.53;;
13325;SDS011;6732;51.044;3.746;2022-11-18T13:54:49;4.20;;;2.77;;
13325;SDS011;6732;51.044;3.746;2022-11-18T13:57:17;9.90;;;4.17;;
13325;SDS011;6732;51.044;3.746;2022-11-18T13:59:46;4.70;;;2.90;;
13325;SDS011;6732;51.044;3.746;2022-11-18T14:02:14;7.10;;;3.03;;
13325;SDS011;6732;51.044;3.746;2022-11-18T14:04:59;6.90;;;3.30;;
13325;SDS011;6732;51.044;3.746;2022-11-18T14:09:59;4.83;;;2.90;;
13325;SDS011;6732;51.044;3.746;2022-11-18T14:12:31;5.23;;;2.80;;
13325;SDS011;6732;51.044;3.746;2022-11-18T14:15:11;5.43;;;3.47;;
13325;SDS011;6732;51.044;3.746;2022-11-18T14:17:58;5.23;;;3.43;;
13325;SDS011;6732;51.044;3.746;2022-11-18T14:20:26;7.03;;;3.47;;
13325;SDS011;6732;51.044;3.746;2022-11-18T14:23:00;6.57;;;3.40;;
13325;SDS011;6732;51.044;3.746;2022-11-18T14:25:31;11.30;;;3.37;;
13325;SDS011;6732;51.044;3.746;2022-11-18T14:28:10;9.50;;;2.83;;
13325;SDS011;6732;51.044;3.746;2022-11-18T14:31:01;7.03;;;3.07;;
13325;SDS011;6732;51.044;3.746;2022-11-18T14:33:37;6.87;;;3.10;;
13325;SDS011;6732;51.044;3.746;2022-11-18T14:36:10;5.47;;;2.90;;
13325;SDS011;6732;51.044;3.746;2022-11-18T14:41:13;5.40;;;2.77;;
13325;SDS011;6732;51.044;3.746;2022-11-18T14:43:41;4.57;;;2.70;;
13325;SDS011;6732;51.044;3.746;2022-11-18T14:46:15;5.67;;;2.60;;
13325;SDS011;6732;51.044;3.746;2022-11-18T14:48:43;5.13;;;2.23;;
13325;SDS011;6732;51.044;3.746;2022-11-18T14:51:13;4.40;;;2.20;;
13325;SDS011;6732;51.044;3.746;2022-11-18T14:53:40;5.93;;;2.40;;
13325;SDS011;6732;51.044;3.746;2022-11-18T14:56:16;3.10;;;2.30;;
13325;SDS011;6732;51.044;3.746;2022-11-18T14:58:53;5.17;;;2.43;;
13325;SDS011;6732;51.044;3.746;2022-11-18T15:01:19;4.10;;;2.20;;
13325;SDS011;6732;51.044;3.746;2022-11-18T15:03:45;6.57;;;2.70;;
13325;SDS011;6732;51.044;3.746;2022-11-18T15:06:15;3.90;;;2.33;;
13325;SDS011;6732;51.044;3.746;2022-11-18T15:08:44;5.13;;;2.70;;
13325;SDS011;6732;51.044;3.746;2022-11-18T15:11:11;6.47;;;2.77;;
13325;SDS011;6732;51.044;3.746;2022-11-18T15:13:39;6.27;;;3.17;;
13325;SDS011;6732;51.044;3.746;2022-11-18T15:16:12;8.30;;;4.07;;
13325;SDS011;6732;51.044;3.746;2022-11-18T15:18:40;6.90;;;3.60;;
13325;SDS011;6732;51.044;3.746;2022-11-18T15:21:07;7.23;;;3.40;;
13325;SDS011;6732;51.044;3.746;2022-11-18T15:23:33;5.43;;;3.10;;
13325;SDS011;6732;51.044;3.746;2022-11-18T15:25:59;6.93;;;2.80;;
13325;SDS011;6732;51.044;3.746;2022-11-18T15:28:25;5.53;;;3.27;;
13325;SDS011;6732;51.044;3.746;2022-11-18T15:30:51;6.93;;;3.07;;
13325;SDS011;6732;51.044;3.746;2022-11-18T15:33:17;7.37;;;2.97;;
13325;SDS011;6732;51.044;3.746;2022-11-18T15:35:43;9.87;;;3.53;;
13325;SDS011;6732;51.044;3.746;2022-11-18T15:38:09;5.70;;;3.10;;
13325;SDS011;6732;51.044;3.746;2022-11-18T15:40:36;7.20;;;3.30;;
13325;SDS011;6732;51.044;3.746;2022-11-18T15:43:03;5.07;;;3.20;;
13325;SDS011;6732;51.044;3.746;2022-11-18T15:45:29;8.90;;;3.37;;
13325;SDS011;6732;51.044;3.746;2022-11-18T15:47:55;6.27;;;3.10;;
13325;SDS011;6732;51.044;3.746;2022-11-18T15:50:21;7.17;;;3.33;;
13325;SDS011;6732;51.044;3.746;2022-11-18T15:52:47;5.33;;;3.00;;
13325;SDS011;6732;51.044;3.746;2022-11-18T15:55:13;5.33;;;3.03;;
13325;SDS011;6732;51.044;3.746;2022-11-18T15:57:38;8.10;;;3.70;;
13325;SDS011;6732;51.044;3.746;2022-11-18T16:00:04;6.90;;;3.10;;
13325;SDS011;6732;51.044;3.746;2022-11-18T16:02:30;8.03;;;3.67;;
13325;SDS011;6732;51.044;3.746;2022-11-18T16:04:56;8.07;;;4.13;;
13325;SDS011;6732;51.044;3.746;2022-11-18T16:07:22;5.23;;;3.73;;
13325;SDS011;6732;51.044;3.746;2022-11-18T16:09:48;6.03;;;3.30;;
13325;SDS011;6732;51.044;3.746;2022-11-18T16:12:33;6.50;;;3.87;;
13325;SDS011;6732;51.044;3.746;2022-11-18T16:15:11;4.67;;;3.60;;
13325;SDS011;6732;51.044;3.746;2022-11-18T16:18:00;8.57;;;4.27;;
13325;SDS011;6732;51.044;3.746;2022-11-18T16:20:27;7.40;;;4.07;;
13325;SDS011;6732;51.044;3.746;2022-11-18T16:22:56;6.00;;;4.03;;
13325;SDS011;6732;51.044;3.746;2022-11-18T16:25:22;6.67;;;4.20;;
13325;SDS011;6732;51.044;3.746;2022-11-18T16:27:49;8.07;;;4.80;;
13325;SDS011;6732;51.044;3.746;2022-11-18T16:30:15;7.63;;;5.43;;
13325;SDS011;6732;51.044;3.746;2022-11-18T16:33:00;6.67;;;4.30;;
13325;SDS011;6732;51.044;3.746;2022-11-18T16:35:26;7.67;;;4.43;;
13325;SDS011;6732;51.044;3.746;2022-11-18T16:37:52;7.07;;;4.47;;
13325;SDS011;6732;51.044;3.746;2022-11-18T16:40:19;9.20;;;4.80;;
13325;SDS011;6732;51.044;3.746;2022-11-18T16:42:49;5.90;;;4.80;;
13325;SDS011;6732;51.044;3.746;2022-11-18T16:45:15;9.03;;;4.53;;
13325;SDS011;6732;51.044;3.746;2022-11-18T16:47:42;8.77;;;4.40;;
13325;SDS011;6732;51.044;3.746;2022-11-18T16:50:09;7.60;;;4.30;;
13325;SDS011;6732;51.044;3.746;2022-11-18T16:52:35;5.80;;;3.90;;
13325;SDS011;6732;51.044;3.746;2022-11-18T16:55:02;7.87;;;4.70;;
13325;SDS011;6732;51.044;3.746;2022-11-18T16:57:28;9.70;;;4.40;;
13325;SDS011;6732;51.044;3.746;2022-11-18T16:59:55;6.87;;;4.23;;
13325;SDS011;6732;51.044;3.746;2022-11-18T17:02:21;8.67;;;4.47;;
13325;SDS011;6732;51.044;3.746;2022-11-18T17:04:48;9.77;;;4.87;;
13325;SDS011;6732;51.044;3.746;2022-11-18T17:07:14;5.90;;;4.33;;
13325;SDS011;6732;51.044;3.746;2022-11-18T17:09:41;9.03;;;4.40;;
13325;SDS011;6732;51.044;3.746;2022-11-18T17:12:07;7.90;;;4.70;;
13325;SDS011;6732;51.044;3.746;2022-11-18T17:14:33;6.23;;;3.97;;
13325;SDS011;6732;51.044;3.746;2022-11-18T17:17:02;8.10;;;4.53;;
13325;SDS011;6732;51.044;3.746;2022-11-18T17:19:28;8.47;;;4.63;;
13325;SDS011;6732;51.044;3.746;2022-11-18T17:21:54;6.90;;;4.53;;
13325;SDS011;6732;51.044;3.746;2022-11-18T17:24:20;6.87;;;4.40;;
13325;SDS011;6732;51.044;3.746;2022-11-18T17:26:47;11.60;;;4.90;;
13325;SDS011;6732;51.044;3.746;2022-11-18T17:29:14;10.43;;;4.50;;
13325;SDS011;6732;51.044;3.746;2022-11-18T17:31:40;8.57;;;4.83;;
13325;SDS011;6732;51.044;3.746;2022-11-18T17:34:08;7.57;;;4.13;;
13325;SDS011;6732;51.044;3.746;2022-11-18T17:36:36;8.23;;;4.23;;
13325;SDS011;6732;51.044;3.746;2022-11-18T17:39:02;7.07;;;4.23;;